Аэропорт: Псков. Псков

ICAO: ULOO

METAR:
2024-04-22 23:00:00
ULOO 222300Z 20004MPS 9999 -SHRA BKN006 BKN016CB 04/04 Q1007 NOSIG RMK OBST OBSC QFE751
TAF:
2024-04-22 22:55:00
TAF ULOO 222255Z 2300/2309 22005G10MPS 6000 OVC007 
  TEMPO 2300/2305 1500 SHSNRA BR BKN005 BKN015CB 
  BECMG 2305/2306 BKN011 
  TEMPO 2306/2309 2100 -SHRASN BR BKN006 BKN016CB